Moscow, AR (71659)

6:31 PM CST on December 28, 2014 (GMT -0600)
Grider | Change Station
CLOSE
Current Station
Airport
Location: Pine Bluff,
Elevation: 207 ft
Nearby Weather Stations

Elev 207 ft 34.17 °N, 91.93 °W | Updated 14 minutes ago

Mostly Cloudy
Mostly Cloudy
39 °F
Feels Like 35 °F
N
6
Wind Variable Wind from North

Today
High -- | Low -- °F
--% Chance of Precip.
Yesterday
High -- | Low -- °F
Precip. -- in
7:11 AM 5:05 PM
First Quarter, 53% visible
Pressure 30.20 in
Visibility 10.0 miles
Clouds Mostly Cloudy 1400 ft
Overcast 6000 ft
Windchill 35 °F
Dew Point 34 °F
Humidity 82%
Rainfall 0.01 in
Snow Depth Not available.
UV 0 out of 12
Pollen 1.60 out of 12
Air Quality Not available.
Flu Activity Not available.
SPECI KPBF 290017Z AUTO 35005KT 10SM BKN014 OVC060 04/01 A3020 RMK AO2 RAB2354E09 P0000 T00390011

More Conditions Fewer Conditions

Pressure 30.20 in
Visibility 10.0 miles
Clouds Mostly Cloudy 1400 ft
Overcast 6000 ft
Windchill 35 °F
Dew Point 34 °F
Humidity 82%
Rainfall 0.01 in
Snow Depth Not available.
UV 0 out of 12
Pollen 1.60 out of 12
Air Quality Not available.
Flu Activity Not available.
SPECI KPBF 290017Z AUTO 35005KT 10SM BKN014 OVC060 04/01 A3020 RMK AO2 RAB2354E09 P0000 T00390011

More Conditions Fewer Conditions

10-Day Weather Forecast

Almanac

Astronomy

Dec. 28, 2014 Rise Set
Actual Time
Civil Twilight
Nautical Twilight
Astronomical Twilight
Moon
Length of Visible Light
Length of Day
Tomorrow will be .
, % of the Moon is Illuminated

Today's Extremes

State Highs State Lows

Community

WunderPhotos

Upload Photos

1,781,472 photos uploaded!

WunderBlogs® & News

Nearby

Air Quality

  Air Quality AQ Index Pollutant
Not available.

Snow Depth

Station Depth Elevation

Earthquake Activity

City Distance Mag. Time & Date
Minimum magnitude displayed is 2.5.

Coastal Water Temperatures

Place Temperature

Nearby Weather Stations